Airfield :
LOGIN :

Register | Disclaimer

   EN    FR    IT 

 










Legend :    VFR   Marginal VFR   IFR   Intensive IFR   Very Intensive IFR
Visi :
Ceiling :
>= 8 km
>= 3000ft
5 to 8 km
1000 to 3000 ft
1500m to 5 km
500 to 1000 ft
800 to 1500m
200 to 500 ft
< 800m
< 200 ft
Symbols :   Thunderstorms  Fog  Heavy snow  Heavy precipitations  Wind > 20 kt
SIGMETs :     Misc.  Thunderstorms  Icing  Turbulence  Mountain Waves  Volcanic Ashes






- Airport Elevation : 12 ft
- IATA code : BCN


LEBL - Barcelone

CURRENT METAR :
  • 201300Z 22005KT 180V260 CAVOK 12/05 Q1026 NOSIG

EXPIRED METARs :
  • 201230Z 21002KT CAVOK 12/05 Q1026 NOSIG
  • 201200Z 32004KT 290V350 9000 NSC 12/04 Q1027 NOSIG
  • 201130Z 31006KT 9000 NSC 11/03 Q1028 NOSIG
  • 201100Z 31011KT 9000 NSC 10/02 Q1028 NOSIG
  • 201030Z 32011KT 8000 NSC 08/02 Q1028 NOSIG

TAF TAF LEBL
Valid from the 20 at 12:00 until the 21 at 12:00 UTC


201100Z 2012/2112 34007KT 9999 FEW025 TX14/2013Z TN05/2106Z
BECMG 2012/2013 22008KT
BECMG 2017/2019 34010KT



MET'MAP, your aeronautical weather chart ! - Copyright ORBIFLY December 2007 - Disclaimer

ORBIFLY MET'MAP TEAM :

Programming & Development : Alexandra Zaïnal
Concept & original design : Baudouin d'Aumeries
Assistance for programming : Marc-Olivier Méhu
Technical & hardware support : Manuel Goepfert

Contact : metmap@orbifly.com




SOURCES & CREDITS :

   NOAA